Pittsburgh, Pennsylvania
Traffic Map
Current Weather Conditions
Pittsburgh, Pennsylvania
Overcast Light Snow
Overcast
25°
Feels Like: 14°
Wind Chill: 14° Ceiling: 1700
Heat Index: 25° Visibility: 6mi
Dew Point: 20° Wind: 13mph
Humidity: 81% Direction: 250° (WSW)
Pressure: 29.68in Gusts: 0mph
Raw Report DataKAGC 100653Z 25011KT 6SM -SN OVC017 M04/M07 A2968 RMK AO2 SNB25 SLP069 P0000 T10391067
Traffic Incident Summary
Active as of:
Severity:
Category:
InformationThere was an issue retrieving the traffic information for this location. Please try a different location or try again shortly.
Advertisements
Track Severe Weather on mobile